sensor_id;sensor_type;location;lat;lon;timestamp;temperature;humidity
37806;DHT22;25082;50.870;0.022;2024-01-16T00:00:54;18.60;49.20
37806;DHT22;25082;50.870;0.022;2024-01-16T00:03:20;18.60;49.20
37806;DHT22;25082;50.870;0.022;2024-01-16T00:05:46;18.50;49.20
37806;DHT22;25082;50.870;0.022;2024-01-16T00:08:11;18.50;49.20
37806;DHT22;25082;50.870;0.022;2024-01-16T00:10:37;18.50;49.20
37806;DHT22;25082;50.870;0.022;2024-01-16T00:13:03;18.40;49.10
37806;DHT22;25082;50.870;0.022;2024-01-16T00:15:29;18.40;49.20
37806;DHT22;25082;50.870;0.022;2024-01-16T00:17:54;18.40;49.20
37806;DHT22;25082;50.870;0.022;2024-01-16T00:20:20;18.40;49.10
37806;DHT22;25082;50.870;0.022;2024-01-16T00:22:48;18.40;49.20
37806;DHT22;25082;50.870;0.022;2024-01-16T00:25:14;18.30;49.20
37806;DHT22;25082;50.870;0.022;2024-01-16T00:27:40;18.30;49.10
37806;DHT22;25082;50.870;0.022;2024-01-16T00:30:06;18.30;49.20
37806;DHT22;25082;50.870;0.022;2024-01-16T00:32:32;18.30;49.20
37806;DHT22;25082;50.870;0.022;2024-01-16T00:34:58;18.30;49.20
37806;DHT22;25082;50.870;0.022;2024-01-16T00:37:24;18.30;49.10
37806;DHT22;25082;50.870;0.022;2024-01-16T00:39:49;18.20;49.00
37806;DHT22;25082;50.870;0.022;2024-01-16T00:42:15;18.20;49.00
37806;DHT22;25082;50.870;0.022;2024-01-16T00:44:41;18.20;49.10
37806;DHT22;25082;50.870;0.022;2024-01-16T00:47:06;18.20;49.20
37806;DHT22;25082;50.870;0.022;2024-01-16T00:49:32;18.10;49.20
37806;DHT22;25082;50.870;0.022;2024-01-16T00:51:58;18.10;49.30
37806;DHT22;25082;50.870;0.022;2024-01-16T00:54:24;18.10;49.10
37806;DHT22;25082;50.870;0.022;2024-01-16T00:56:49;18.10;49.20
37806;DHT22;25082;50.870;0.022;2024-01-16T00:59:15;18.10;49.20
37806;DHT22;25082;50.870;0.022;2024-01-16T01:01:41;18.00;49.10
37806;DHT22;25082;50.870;0.022;2024-01-16T01:04:07;18.00;49.20
37806;DHT22;25082;50.870;0.022;2024-01-16T01:06:32;18.00;49.30
37806;DHT22;25082;50.870;0.022;2024-01-16T01:08:58;18.00;49.20
37806;DHT22;25082;50.870;0.022;2024-01-16T01:11:24;18.00;49.20
37806;DHT22;25082;50.870;0.022;2024-01-16T01:13:50;17.90;49.30
37806;DHT22;25082;50.870;0.022;2024-01-16T01:16:16;17.90;49.30
37806;DHT22;25082;50.870;0.022;2024-01-16T01:18:42;17.90;49.30
37806;DHT22;25082;50.870;0.022;2024-01-16T01:21:08;17.90;49.30
37806;DHT22;25082;50.870;0.022;2024-01-16T01:23:34;17.80;49.30
37806;DHT22;25082;50.870;0.022;2024-01-16T01:26:00;17.80;49.30
37806;DHT22;25082;50.870;0.022;2024-01-16T01:28:26;17.80;49.30
37806;DHT22;25082;50.870;0.022;2024-01-16T01:30:52;17.80;49.30
37806;DHT22;25082;50.870;0.022;2024-01-16T01:33:17;17.80;49.30
37806;DHT22;25082;50.870;0.022;2024-01-16T01:35:43;17.80;49.30
37806;DHT22;25082;50.870;0.022;2024-01-16T01:38:09;17.70;49.20
37806;DHT22;25082;50.870;0.022;2024-01-16T01:40:35;17.70;49.20
37806;DHT22;25082;50.870;0.022;2024-01-16T01:43:20;17.70;49.00
37806;DHT22;25082;50.870;0.022;2024-01-16T01:46:13;17.70;49.10
37806;DHT22;25082;50.870;0.022;2024-01-16T01:48:43;17.70;49.10
37806;DHT22;25082;50.870;0.022;2024-01-16T01:51:13;17.60;49.00
37806;DHT22;25082;50.870;0.022;2024-01-16T01:53:42;17.60;49.00
37806;DHT22;25082;50.870;0.022;2024-01-16T01:56:14;17.60;49.00
37806;DHT22;25082;50.870;0.022;2024-01-16T01:58:43;17.60;49.00
37806;DHT22;25082;50.870;0.022;2024-01-16T02:01:10;17.60;48.90
37806;DHT22;25082;50.870;0.022;2024-01-16T02:03:42;17.50;48.90
37806;DHT22;25082;50.870;0.022;2024-01-16T02:06:09;17.50;48.80
37806;DHT22;25082;50.870;0.022;2024-01-16T02:08:35;17.50;49.00
37806;DHT22;25082;50.870;0.022;2024-01-16T02:11:01;17.50;48.80
37806;DHT22;25082;50.870;0.022;2024-01-16T02:13:28;17.50;48.90
37806;DHT22;25082;50.870;0.022;2024-01-16T02:15:54;17.40;48.90
37806;DHT22;25082;50.870;0.022;2024-01-16T02:18:19;17.40;48.80
37806;DHT22;25082;50.870;0.022;2024-01-16T02:20:46;17.40;48.90
37806;DHT22;25082;50.870;0.022;2024-01-16T02:23:14;17.40;48.80
37806;DHT22;25082;50.870;0.022;2024-01-16T02:25:41;17.30;48.80
37806;DHT22;25082;50.870;0.022;2024-01-16T02:28:07;17.40;48.80
37806;DHT22;25082;50.870;0.022;2024-01-16T02:30:33;17.30;48.80
37806;DHT22;25082;50.870;0.022;2024-01-16T02:32:59;17.30;48.80
37806;DHT22;25082;50.870;0.022;2024-01-16T02:35:25;17.30;48.80
37806;DHT22;25082;50.870;0.022;2024-01-16T02:37:51;17.30;48.80
37806;DHT22;25082;50.870;0.022;2024-01-16T02:40:17;17.30;48.80
37806;DHT22;25082;50.870;0.022;2024-01-16T02:42:42;17.20;48.70
37806;DHT22;25082;50.870;0.022;2024-01-16T02:45:08;17.20;48.80
37806;DHT22;25082;50.870;0.022;2024-01-16T02:47:34;17.20;48.80
37806;DHT22;25082;50.870;0.022;2024-01-16T02:50:01;17.20;48.70
37806;DHT22;25082;50.870;0.022;2024-01-16T02:52:27;17.20;48.70
37806;DHT22;25082;50.870;0.022;2024-01-16T02:54:52;17.10;48.70
37806;DHT22;25082;50.870;0.022;2024-01-16T02:57:18;17.10;48.70
37806;DHT22;25082;50.870;0.022;2024-01-16T02:59:44;17.10;48.70
37806;DHT22;25082;50.870;0.022;2024-01-16T03:02:10;17.10;48.70
37806;DHT22;25082;50.870;0.022;2024-01-16T03:04:37;17.10;48.70
37806;DHT22;25082;50.870;0.022;2024-01-16T03:07:03;17.10;48.70
37806;DHT22;25082;50.870;0.022;2024-01-16T03:09:29;17.10;48.70
37806;DHT22;25082;50.870;0.022;2024-01-16T03:11:55;17.10;48.70
37806;DHT22;25082;50.870;0.022;2024-01-16T03:14:20;17.00;48.70
37806;DHT22;25082;50.870;0.022;2024-01-16T03:16:46;17.00;48.60
37806;DHT22;25082;50.870;0.022;2024-01-16T03:19:12;17.00;48.60
37806;DHT22;25082;50.870;0.022;2024-01-16T03:21:38;17.00;48.60
37806;DHT22;25082;50.870;0.022;2024-01-16T03:24:05;17.00;48.70
37806;DHT22;25082;50.870;0.022;2024-01-16T03:26:36;16.90;48.60
37806;DHT22;25082;50.870;0.022;2024-01-16T03:29:02;17.00;48.70
37806;DHT22;25082;50.870;0.022;2024-01-16T03:31:28;16.90;48.60
37806;DHT22;25082;50.870;0.022;2024-01-16T03:33:54;16.90;48.60
37806;DHT22;25082;50.870;0.022;2024-01-16T03:36:20;16.90;48.60
37806;DHT22;25082;50.870;0.022;2024-01-16T03:38:45;16.90;48.60
37806;DHT22;25082;50.870;0.022;2024-01-16T03:41:11;16.90;48.60
37806;DHT22;25082;50.870;0.022;2024-01-16T03:43:37;16.90;48.60
37806;DHT22;25082;50.870;0.022;2024-01-16T03:46:03;16.90;48.60
37806;DHT22;25082;50.870;0.022;2024-01-16T03:48:29;16.80;48.60
37806;DHT22;25082;50.870;0.022;2024-01-16T03:50:56;16.80;48.50
37806;DHT22;25082;50.870;0.022;2024-01-16T03:53:22;16.80;48.50
37806;DHT22;25082;50.870;0.022;2024-01-16T03:55:48;16.70;48.50
37806;DHT22;25082;50.870;0.022;2024-01-16T03:58:15;16.70;49.10
37806;DHT22;25082;50.870;0.022;2024-01-16T04:00:41;16.80;48.50
37806;DHT22;25082;50.870;0.022;2024-01-16T04:03:07;16.70;48.50
37806;DHT22;25082;50.870;0.022;2024-01-16T04:05:33;16.70;48.50
37806;DHT22;25082;50.870;0.022;2024-01-16T04:07:59;16.70;48.50
37806;DHT22;25082;50.870;0.022;2024-01-16T04:10:25;16.70;48.50
37806;DHT22;25082;50.870;0.022;2024-01-16T04:12:51;16.70;48.60
37806;DHT22;25082;50.870;0.022;2024-01-16T04:15:17;16.70;48.50
37806;DHT22;25082;50.870;0.022;2024-01-16T04:17:43;16.60;48.50
37806;DHT22;25082;50.870;0.022;2024-01-16T04:20:09;16.60;48.50
37806;DHT22;25082;50.870;0.022;2024-01-16T04:22:36;16.60;48.50
37806;DHT22;25082;50.870;0.022;2024-01-16T04:25:02;16.60;48.40
37806;DHT22;25082;50.870;0.022;2024-01-16T04:27:31;16.50;48.40
37806;DHT22;25082;50.870;0.022;2024-01-16T04:29:57;16.60;48.50
37806;DHT22;25082;50.870;0.022;2024-01-16T04:32:23;16.50;48.40
37806;DHT22;25082;50.870;0.022;2024-01-16T04:34:48;16.50;48.50
37806;DHT22;25082;50.870;0.022;2024-01-16T04:37:14;16.50;48.50
37806;DHT22;25082;50.870;0.022;2024-01-16T04:39:40;16.50;48.50
37806;DHT22;25082;50.870;0.022;2024-01-16T04:42:06;16.50;48.50
37806;DHT22;25082;50.870;0.022;2024-01-16T04:44:31;16.50;48.40
37806;DHT22;25082;50.870;0.022;2024-01-16T04:46:57;16.50;48.50
37806;DHT22;25082;50.870;0.022;2024-01-16T04:49:23;16.40;48.40
37806;DHT22;25082;50.870;0.022;2024-01-16T04:51:49;16.40;48.40
37806;DHT22;25082;50.870;0.022;2024-01-16T04:54:15;16.40;48.40
37806;DHT22;25082;50.870;0.022;2024-01-16T04:56:41;16.40;48.40
37806;DHT22;25082;50.870;0.022;2024-01-16T04:59:06;16.40;48.40
37806;DHT22;25082;50.870;0.022;2024-01-16T05:01:32;16.40;48.40
37806;DHT22;25082;50.870;0.022;2024-01-16T05:03:58;16.40;48.40
37806;DHT22;25082;50.870;0.022;2024-01-16T05:06:24;16.30;48.40
37806;DHT22;25082;50.870;0.022;2024-01-16T05:08:50;16.30;48.30
37806;DHT22;25082;50.870;0.022;2024-01-16T05:11:15;16.30;48.40
37806;DHT22;25082;50.870;0.022;2024-01-16T05:13:41;16.30;48.40
37806;DHT22;25082;50.870;0.022;2024-01-16T05:16:07;16.30;48.30
37806;DHT22;25082;50.870;0.022;2024-01-16T05:18:33;16.30;48.40
37806;DHT22;25082;50.870;0.022;2024-01-16T05:20:59;16.30;48.40
37806;DHT22;25082;50.870;0.022;2024-01-16T05:23:25;16.20;48.30
37806;DHT22;25082;50.870;0.022;2024-01-16T05:25:51;16.20;48.30
37806;DHT22;25082;50.870;0.022;2024-01-16T05:28:16;16.20;48.30
37806;DHT22;25082;50.870;0.022;2024-01-16T05:30:42;16.20;48.30
37806;DHT22;25082;50.870;0.022;2024-01-16T05:33:08;16.20;48.30
37806;DHT22;25082;50.870;0.022;2024-01-16T05:35:34;16.20;48.30
37806;DHT22;25082;50.870;0.022;2024-01-16T05:38:00;16.10;48.30
37806;DHT22;25082;50.870;0.022;2024-01-16T05:40:26;16.10;48.20
37806;DHT22;25082;50.870;0.022;2024-01-16T05:42:52;16.10;48.20
37806;DHT22;25082;50.870;0.022;2024-01-16T05:45:18;16.10;48.20
37806;DHT22;25082;50.870;0.022;2024-01-16T05:47:44;16.10;48.20
37806;DHT22;25082;50.870;0.022;2024-01-16T05:50:10;16.10;48.30
37806;DHT22;25082;50.870;0.022;2024-01-16T05:52:36;16.10;48.30
37806;DHT22;25082;50.870;0.022;2024-01-16T05:55:02;16.00;48.20
37806;DHT22;25082;50.870;0.022;2024-01-16T05:57:29;16.00;48.20
37806;DHT22;25082;50.870;0.022;2024-01-16T05:59:57;16.00;48.20
37806;DHT22;25082;50.870;0.022;2024-01-16T06:02:23;16.00;48.20
37806;DHT22;25082;50.870;0.022;2024-01-16T06:04:49;16.00;48.20
37806;DHT22;25082;50.870;0.022;2024-01-16T06:07:15;16.00;48.20
37806;DHT22;25082;50.870;0.022;2024-01-16T06:09:41;16.00;48.20
37806;DHT22;25082;50.870;0.022;2024-01-16T06:12:07;15.90;48.10
37806;DHT22;25082;50.870;0.022;2024-01-16T06:14:34;15.90;48.70
37806;DHT22;25082;50.870;0.022;2024-01-16T06:17:00;15.90;48.10
37806;DHT22;25082;50.870;0.022;2024-01-16T06:19:26;15.90;48.10
37806;DHT22;25082;50.870;0.022;2024-01-16T06:21:51;15.90;48.10
37806;DHT22;25082;50.870;0.022;2024-01-16T06:24:17;15.90;48.10
37806;DHT22;25082;50.870;0.022;2024-01-16T06:26:43;15.90;48.20
37806;DHT22;25082;50.870;0.022;2024-01-16T06:29:09;15.80;48.20
37806;DHT22;25082;50.870;0.022;2024-01-16T06:31:35;15.90;48.30
37806;DHT22;25082;50.870;0.022;2024-01-16T06:34:00;15.80;48.20
37806;DHT22;25082;50.870;0.022;2024-01-16T06:36:26;15.80;48.30
37806;DHT22;25082;50.870;0.022;2024-01-16T06:38:52;15.80;48.30
37806;DHT22;25082;50.870;0.022;2024-01-16T06:41:18;15.80;48.30
37806;DHT22;25082;50.870;0.022;2024-01-16T06:43:44;15.80;48.30
37806;DHT22;25082;50.870;0.022;2024-01-16T06:46:10;15.80;48.30
37806;DHT22;25082;50.870;0.022;2024-01-16T06:48:36;15.80;48.40
37806;DHT22;25082;50.870;0.022;2024-01-16T06:51:05;15.70;48.30
37806;DHT22;25082;50.870;0.022;2024-01-16T06:53:31;15.70;48.30
37806;DHT22;25082;50.870;0.022;2024-01-16T06:55:57;15.70;48.30
37806;DHT22;25082;50.870;0.022;2024-01-16T06:58:22;15.70;48.30
37806;DHT22;25082;50.870;0.022;2024-01-16T07:00:48;15.70;48.30
37806;DHT22;25082;50.870;0.022;2024-01-16T07:03:14;15.60;48.30
37806;DHT22;25082;50.870;0.022;2024-01-16T07:05:40;15.60;48.30
37806;DHT22;25082;50.870;0.022;2024-01-16T07:08:09;15.60;48.40
37806;DHT22;25082;50.870;0.022;2024-01-16T07:10:35;15.60;48.30
37806;DHT22;25082;50.870;0.022;2024-01-16T07:13:01;15.60;48.30
37806;DHT22;25082;50.870;0.022;2024-01-16T07:15:28;15.60;48.40
37806;DHT22;25082;50.870;0.022;2024-01-16T07:17:53;15.60;48.30
37806;DHT22;25082;50.870;0.022;2024-01-16T07:20:19;15.60;48.40
37806;DHT22;25082;50.870;0.022;2024-01-16T07:22:45;15.60;48.40
37806;DHT22;25082;50.870;0.022;2024-01-16T07:25:11;15.50;48.40
37806;DHT22;25082;50.870;0.022;2024-01-16T07:27:37;15.50;48.40
37806;DHT22;25082;50.870;0.022;2024-01-16T07:30:06;15.50;48.30
37806;DHT22;25082;50.870;0.022;2024-01-16T07:32:32;15.50;48.30
37806;DHT22;25082;50.870;0.022;2024-01-16T07:34:58;15.50;48.30
37806;DHT22;25082;50.870;0.022;2024-01-16T07:37:24;15.50;48.30
37806;DHT22;25082;50.870;0.022;2024-01-16T07:39:50;15.50;48.30
37806;DHT22;25082;50.870;0.022;2024-01-16T07:42:15;15.50;48.40
37806;DHT22;25082;50.870;0.022;2024-01-16T07:44:41;15.40;48.30
37806;DHT22;25082;50.870;0.022;2024-01-16T07:47:07;15.40;48.30
37806;DHT22;25082;50.870;0.022;2024-01-16T07:49:34;15.40;48.30
37806;DHT22;25082;50.870;0.022;2024-01-16T07:51:59;15.40;48.30
37806;DHT22;25082;50.870;0.022;2024-01-16T07:54:25;15.40;48.30
37806;DHT22;25082;50.870;0.022;2024-01-16T07:56:51;15.30;48.20
37806;DHT22;25082;50.870;0.022;2024-01-16T07:59:17;15.30;48.20
37806;DHT22;25082;50.870;0.022;2024-01-16T08:01:43;15.30;48.20
37806;DHT22;25082;50.870;0.022;2024-01-16T08:04:09;15.30;48.20
37806;DHT22;25082;50.870;0.022;2024-01-16T08:06:35;15.30;48.20
37806;DHT22;25082;50.870;0.022;2024-01-16T08:09:01;15.30;48.40
37806;DHT22;25082;50.870;0.022;2024-01-16T08:11:27;15.30;48.30
37806;DHT22;25082;50.870;0.022;2024-01-16T08:13:53;15.30;48.20
37806;DHT22;25082;50.870;0.022;2024-01-16T08:16:18;15.30;48.00
37806;DHT22;25082;50.870;0.022;2024-01-16T08:18:44;15.40;48.10
37806;DHT22;25082;50.870;0.022;2024-01-16T08:21:10;15.40;48.20
37806;DHT22;25082;50.870;0.022;2024-01-16T08:23:37;15.40;48.00
37806;DHT22;25082;50.870;0.022;2024-01-16T08:26:03;15.40;48.10
37806;DHT22;25082;50.870;0.022;2024-01-16T08:28:28;15.50;48.20
37806;DHT22;25082;50.870;0.022;2024-01-16T08:30:54;15.50;48.10
37806;DHT22;25082;50.870;0.022;2024-01-16T08:33:20;15.50;48.00
37806;DHT22;25082;50.870;0.022;2024-01-16T08:35:46;15.50;48.00
37806;DHT22;25082;50.870;0.022;2024-01-16T08:38:11;15.50;48.00
37806;DHT22;25082;50.870;0.022;2024-01-16T08:40:37;15.50;48.00
37806;DHT22;25082;50.870;0.022;2024-01-16T08:43:03;15.50;48.10
37806;DHT22;25082;50.870;0.022;2024-01-16T08:45:29;15.60;48.10
37806;DHT22;25082;50.870;0.022;2024-01-16T08:47:55;15.50;48.00
37806;DHT22;25082;50.870;0.022;2024-01-16T08:50:21;15.60;48.00
37806;DHT22;25082;50.870;0.022;2024-01-16T08:52:46;15.60;47.90
37806;DHT22;25082;50.870;0.022;2024-01-16T08:55:12;15.60;48.00
37806;DHT22;25082;50.870;0.022;2024-01-16T08:57:38;15.60;48.00
37806;DHT22;25082;50.870;0.022;2024-01-16T09:00:07;15.60;47.90
37806;DHT22;25082;50.870;0.022;2024-01-16T09:02:35;15.60;47.90
37806;DHT22;25082;50.870;0.022;2024-01-16T09:05:01;15.60;47.90
37806;DHT22;25082;50.870;0.022;2024-01-16T09:07:27;15.60;47.90
37806;DHT22;25082;50.870;0.022;2024-01-16T09:09:53;15.70;47.90
37806;DHT22;25082;50.870;0.022;2024-01-16T09:12:19;15.70;47.90
37806;DHT22;25082;50.870;0.022;2024-01-16T09:14:45;15.70;48.00
37806;DHT22;25082;50.870;0.022;2024-01-16T09:17:11;15.70;48.00
37806;DHT22;25082;50.870;0.022;2024-01-16T09:19:37;15.70;47.90
37806;DHT22;25082;50.870;0.022;2024-01-16T09:22:03;15.70;48.00
37806;DHT22;25082;50.870;0.022;2024-01-16T09:24:30;15.70;47.90
37806;DHT22;25082;50.870;0.022;2024-01-16T09:26:55;15.80;48.00
37806;DHT22;25082;50.870;0.022;2024-01-16T09:29:21;15.80;47.90
37806;DHT22;25082;50.870;0.022;2024-01-16T09:31:48;15.80;47.90
37806;DHT22;25082;50.870;0.022;2024-01-16T09:34:13;15.80;47.90
37806;DHT22;25082;50.870;0.022;2024-01-16T09:36:40;15.80;47.90
37806;DHT22;25082;50.870;0.022;2024-01-16T09:39:06;15.80;47.90
37806;DHT22;25082;50.870;0.022;2024-01-16T09:41:34;15.80;47.80
37806;DHT22;25082;50.870;0.022;2024-01-16T09:44:00;15.80;47.80
37806;DHT22;25082;50.870;0.022;2024-01-16T09:46:26;15.80;47.80
37806;DHT22;25082;50.870;0.022;2024-01-16T09:48:56;15.90;48.80
37806;DHT22;25082;50.870;0.022;2024-01-16T09:51:22;15.90;49.70
37806;DHT22;25082;50.870;0.022;2024-01-16T09:53:48;15.90;50.00
37806;DHT22;25082;50.870;0.022;2024-01-16T09:56:15;15.90;50.70
37806;DHT22;25082;50.870;0.022;2024-01-16T09:58:43;15.90;50.90
37806;DHT22;25082;50.870;0.022;2024-01-16T10:01:11;15.90;51.00
37806;DHT22;25082;50.870;0.022;2024-01-16T10:03:38;15.90;51.00
37806;DHT22;25082;50.870;0.022;2024-01-16T10:06:07;15.90;51.30
37806;DHT22;25082;50.870;0.022;2024-01-16T10:08:33;15.90;52.00
37806;DHT22;25082;50.870;0.022;2024-01-16T10:10:59;15.90;51.60
37806;DHT22;25082;50.870;0.022;2024-01-16T10:13:26;16.00;51.50
37806;DHT22;25082;50.870;0.022;2024-01-16T10:15:52;16.00;51.50
37806;DHT22;25082;50.870;0.022;2024-01-16T10:18:29;16.00;51.60
37806;DHT22;25082;50.870;0.022;2024-01-16T10:20:56;16.00;51.60
37806;DHT22;25082;50.870;0.022;2024-01-16T10:23:30;16.00;51.80
37806;DHT22;25082;50.870;0.022;2024-01-16T10:26:09;16.10;51.70
37806;DHT22;25082;50.870;0.022;2024-01-16T10:28:37;16.10;51.90
37806;DHT22;25082;50.870;0.022;2024-01-16T10:31:10;16.20;51.70
37806;DHT22;25082;50.870;0.022;2024-01-16T10:33:37;16.10;51.60
37806;DHT22;25082;50.870;0.022;2024-01-16T10:38:36;16.20;52.00
37806;DHT22;25082;50.870;0.022;2024-01-16T10:41:09;16.20;51.90
37806;DHT22;25082;50.870;0.022;2024-01-16T10:43:35;16.20;52.30
37806;DHT22;25082;50.870;0.022;2024-01-16T10:48:38;16.30;52.30
37806;DHT22;25082;50.870;0.022;2024-01-16T10:51:06;16.30;52.80
37806;DHT22;25082;50.870;0.022;2024-01-16T10:53:34;16.30;52.90
37806;DHT22;25082;50.870;0.022;2024-01-16T10:56:01;16.40;52.90
37806;DHT22;25082;50.870;0.022;2024-01-16T10:58:30;16.30;52.90
37806;DHT22;25082;50.870;0.022;2024-01-16T11:01:00;16.40;52.90
37806;DHT22;25082;50.870;0.022;2024-01-16T11:03:47;16.40;52.80
37806;DHT22;25082;50.870;0.022;2024-01-16T11:06:18;16.40;52.80
37806;DHT22;25082;50.870;0.022;2024-01-16T11:08:48;16.50;52.90
37806;DHT22;25082;50.870;0.022;2024-01-16T11:11:15;16.50;53.00
37806;DHT22;25082;50.870;0.022;2024-01-16T11:13:42;16.50;52.90
37806;DHT22;25082;50.870;0.022;2024-01-16T11:16:12;16.50;53.00
37806;DHT22;25082;50.870;0.022;2024-01-16T11:18:39;16.40;47.90
37806;DHT22;25082;50.870;0.022;2024-01-16T11:21:10;16.30;48.50
37806;DHT22;25082;50.870;0.022;2024-01-16T11:23:37;16.40;49.40
37806;DHT22;25082;50.870;0.022;2024-01-16T11:26:25;16.30;50.00
37806;DHT22;25082;50.870;0.022;2024-01-16T11:28:55;16.30;50.50
37806;DHT22;25082;50.870;0.022;2024-01-16T11:31:32;16.30;50.80
37806;DHT22;25082;50.870;0.022;2024-01-16T11:33:59;16.40;51.30
37806;DHT22;25082;50.870;0.022;2024-01-16T11:36:50;16.40;51.30
37806;DHT22;25082;50.870;0.022;2024-01-16T11:39:24;16.50;51.50
37806;DHT22;25082;50.870;0.022;2024-01-16T11:44:43;16.60;52.00
37806;DHT22;25082;50.870;0.022;2024-01-16T11:47:15;16.60;52.00
37806;DHT22;25082;50.870;0.022;2024-01-16T11:49:41;16.60;52.00
37806;DHT22;25082;50.870;0.022;2024-01-16T11:52:07;16.70;52.10
37806;DHT22;25082;50.870;0.022;2024-01-16T11:54:33;16.70;52.20
37806;DHT22;25082;50.870;0.022;2024-01-16T11:57:44;16.70;52.30
37806;DHT22;25082;50.870;0.022;2024-01-16T12:00:19;16.70;52.50
37806;DHT22;25082;50.870;0.022;2024-01-16T12:05:11;16.80;52.70
37806;DHT22;25082;50.870;0.022;2024-01-16T12:08:03;16.80;52.70
37806;DHT22;25082;50.870;0.022;2024-01-16T12:10:29;16.90;52.80
37806;DHT22;25082;50.870;0.022;2024-01-16T12:12:59;16.90;53.20
37806;DHT22;25082;50.870;0.022;2024-01-16T12:15:25;17.00;53.00
37806;DHT22;25082;50.870;0.022;2024-01-16T12:18:01;17.00;53.10
37806;DHT22;25082;50.870;0.022;2024-01-16T12:20:31;17.00;53.10
37806;DHT22;25082;50.870;0.022;2024-01-16T12:23:02;17.10;53.20
37806;DHT22;25082;50.870;0.022;2024-01-16T12:25:31;17.10;53.20
37806;DHT22;25082;50.870;0.022;2024-01-16T12:28:01;17.10;53.30
37806;DHT22;25082;50.870;0.022;2024-01-16T12:30:32;17.10;53.30
37806;DHT22;25082;50.870;0.022;2024-01-16T12:33:08;17.20;53.30
37806;DHT22;25082;50.870;0.022;2024-01-16T12:35:39;17.20;53.30
37806;DHT22;25082;50.870;0.022;2024-01-16T12:38:07;17.70;53.30
37806;DHT22;25082;50.870;0.022;2024-01-16T12:40:40;18.40;52.20
37806;DHT22;25082;50.870;0.022;2024-01-16T12:43:08;19.30;50.80
37806;DHT22;25082;50.870;0.022;2024-01-16T12:45:37;20.20;48.70
37806;DHT22;25082;50.870;0.022;2024-01-16T12:48:03;21.10;46.40
37806;DHT22;25082;50.870;0.022;2024-01-16T12:50:30;21.90;44.30
37806;DHT22;25082;50.870;0.022;2024-01-16T12:53:10;22.30;42.80
37806;DHT22;25082;50.870;0.022;2024-01-16T12:55:40;22.40;42.20
37806;DHT22;25082;50.870;0.022;2024-01-16T13:00:38;22.60;41.80
37806;DHT22;25082;50.870;0.022;2024-01-16T13:03:05;22.90;41.70
37806;DHT22;25082;50.870;0.022;2024-01-16T13:05:30;23.40;40.90
37806;DHT22;25082;50.870;0.022;2024-01-16T13:08:06;24.10;39.70
37806;DHT22;25082;50.870;0.022;2024-01-16T13:10:32;25.00;38.70
37806;DHT22;25082;50.870;0.022;2024-01-16T13:13:17;25.80;37.10
37806;DHT22;25082;50.870;0.022;2024-01-16T13:15:44;26.70;35.60
37806;DHT22;25082;50.870;0.022;2024-01-16T13:18:20;27.30;34.10
37806;DHT22;25082;50.870;0.022;2024-01-16T13:20:51;27.70;33.10
37806;DHT22;25082;50.870;0.022;2024-01-16T13:23:18;27.70;32.80
37806;DHT22;25082;50.870;0.022;2024-01-16T13:25:45;27.60;33.20
37806;DHT22;25082;50.870;0.022;2024-01-16T13:28:18;27.40;34.70
37806;DHT22;25082;50.870;0.022;2024-01-16T13:30:46;27.30;34.40
37806;DHT22;25082;50.870;0.022;2024-01-16T13:33:13;27.10;34.70
37806;DHT22;25082;50.870;0.022;2024-01-16T13:35:46;26.60;35.10
37806;DHT22;25082;50.870;0.022;2024-01-16T13:38:13;26.20;35.70
37806;DHT22;25082;50.870;0.022;2024-01-16T13:40:41;25.90;36.40
37806;DHT22;25082;50.870;0.022;2024-01-16T13:43:07;25.70;36.80
37806;DHT22;25082;50.870;0.022;2024-01-16T13:45:33;25.50;37.10
37806;DHT22;25082;50.870;0.022;2024-01-16T13:48:01;25.30;37.40
37806;DHT22;25082;50.870;0.022;2024-01-16T13:50:27;25.00;37.70
37806;DHT22;25082;50.870;0.022;2024-01-16T13:52:53;24.80;38.30
37806;DHT22;25082;50.870;0.022;2024-01-16T13:55:20;24.30;39.00
37806;DHT22;25082;50.870;0.022;2024-01-16T13:57:46;23.80;39.90
37806;DHT22;25082;50.870;0.022;2024-01-16T14:00:13;23.30;41.00
37806;DHT22;25082;50.870;0.022;2024-01-16T14:02:41;22.70;42.00
37806;DHT22;25082;50.870;0.022;2024-01-16T14:05:08;22.20;42.90
37806;DHT22;25082;50.870;0.022;2024-01-16T14:07:37;21.90;43.70
37806;DHT22;25082;50.870;0.022;2024-01-16T14:10:08;21.60;45.00
37806;DHT22;25082;50.870;0.022;2024-01-16T14:12:35;21.30;45.00
37806;DHT22;25082;50.870;0.022;2024-01-16T14:15:02;21.10;45.60
37806;DHT22;25082;50.870;0.022;2024-01-16T14:17:32;20.90;46.00
37806;DHT22;25082;50.870;0.022;2024-01-16T14:19:59;20.70;46.50
37806;DHT22;25082;50.870;0.022;2024-01-16T14:22:25;20.60;46.70
37806;DHT22;25082;50.870;0.022;2024-01-16T14:24:52;20.50;47.00
37806;DHT22;25082;50.870;0.022;2024-01-16T14:27:18;20.40;47.30
37806;DHT22;25082;50.870;0.022;2024-01-16T14:29:43;20.30;47.40
37806;DHT22;25082;50.870;0.022;2024-01-16T14:32:09;20.20;47.60
37806;DHT22;25082;50.870;0.022;2024-01-16T14:34:35;20.10;47.90
37806;DHT22;25082;50.870;0.022;2024-01-16T14:37:01;20.00;48.00
37806;DHT22;25082;50.870;0.022;2024-01-16T14:39:27;20.00;48.20
37806;DHT22;25082;50.870;0.022;2024-01-16T14:41:56;19.90;48.30
37806;DHT22;25082;50.870;0.022;2024-01-16T14:44:24;19.90;48.50
37806;DHT22;25082;50.870;0.022;2024-01-16T14:46:50;19.80;48.60
37806;DHT22;25082;50.870;0.022;2024-01-16T14:49:17;19.80;48.70
37806;DHT22;25082;50.870;0.022;2024-01-16T14:51:43;19.70;48.80
37806;DHT22;25082;50.870;0.022;2024-01-16T14:54:08;19.70;48.90
37806;DHT22;25082;50.870;0.022;2024-01-16T14:56:34;19.70;49.00
37806;DHT22;25082;50.870;0.022;2024-01-16T14:59:00;19.60;49.20
37806;DHT22;25082;50.870;0.022;2024-01-16T15:01:25;19.50;48.30
37806;DHT22;25082;50.870;0.022;2024-01-16T15:03:52;19.50;48.90
37806;DHT22;25082;50.870;0.022;2024-01-16T15:06:18;19.50;49.10
37806;DHT22;25082;50.870;0.022;2024-01-16T15:08:44;19.50;49.30
37806;DHT22;25082;50.870;0.022;2024-01-16T15:11:10;19.40;49.30
37806;DHT22;25082;50.870;0.022;2024-01-16T15:13:36;19.40;49.50
37806;DHT22;25082;50.870;0.022;2024-01-16T15:16:02;19.40;49.60
37806;DHT22;25082;50.870;0.022;2024-01-16T15:18:28;19.40;49.70
37806;DHT22;25082;50.870;0.022;2024-01-16T15:20:54;19.40;49.90
37806;DHT22;25082;50.870;0.022;2024-01-16T15:23:20;19.40;50.00
37806;DHT22;25082;50.870;0.022;2024-01-16T15:25:46;19.40;50.10
37806;DHT22;25082;50.870;0.022;2024-01-16T15:28:12;19.30;50.20
37806;DHT22;25082;50.870;0.022;2024-01-16T15:30:38;19.30;50.30
37806;DHT22;25082;50.870;0.022;2024-01-16T15:33:04;19.30;50.40
37806;DHT22;25082;50.870;0.022;2024-01-16T15:35:31;19.30;50.70
37806;DHT22;25082;50.870;0.022;2024-01-16T15:37:57;19.10;47.70
37806;DHT22;25082;50.870;0.022;2024-01-16T15:40:23;19.00;48.40
37806;DHT22;25082;50.870;0.022;2024-01-16T15:42:49;19.00;49.00